TCMRJ LTBR-LTBE
Flight info
| Callsign | TCMRJ |
|---|---|
| Flight time | N/A |
| Altitude | 4500 |
| Route | LTBR/07L DCT BRY DCT 401306N0291952E DCT |
| Aircraft | DA42/L-VGD/A |
Departure
| Time | 2026-04-28 19:43 |
|---|---|
| Airport | Bursa Yenişehir Airport (LTBR) |
Arrival
| Time | N/A |
|---|---|
| Airport | Bursa Yunuseli Airport (LTBE) |
| Time | Latitude | Longitude | Altitude | Speed | Heading |
|---|---|---|---|---|---|
| 2026-04-28 19:38 | 40.25625 | 29.54696 | 762 ft | 0 kts | 254° |
| 2026-04-28 19:39 | 40.25605 | 29.54649 | 762 ft | 17 kts | 216° |
| 2026-04-28 19:39 | 40.25543 | 29.54611 | 762 ft | 13 kts | 208° |
| 2026-04-28 19:39 | 40.25523 | 29.54574 | 762 ft | 10 kts | 260° |
| 2026-04-28 19:40 | 40.25483 | 29.54459 | 762 ft | 6 kts | 158° |
| 2026-04-28 19:40 | 40.25436 | 29.54481 | 762 ft | 15 kts | 161° |
| 2026-04-28 19:40 | 40.25318 | 29.54521 | 762 ft | 16 kts | 169° |
| 2026-04-28 19:40 | 40.25308 | 29.54524 | 762 ft | 0 kts | 159° |
| 2026-04-28 19:41 | 40.25298 | 29.54529 | 762 ft | 9 kts | 160° |
| 2026-04-28 19:41 | 40.25229 | 29.54573 | 763 ft | 8 kts | 107° |
| 2026-04-28 19:42 | 40.25245 | 29.54664 | 759 ft | 10 kts | 74° |
| 2026-04-28 19:42 | 40.25257 | 29.54723 | 758 ft | 7 kts | 72° |
| 2026-04-28 19:42 | 40.25277 | 29.54814 | 759 ft | 26 kts | 73° |
| 2026-04-28 19:42 | 40.25384 | 29.55338 | 782 ft | 86 kts | 77° |
| 2026-04-28 19:43 | 40.25518 | 29.56221 | 936 ft | 109 kts | 79° |
| 2026-04-28 19:43 | 40.25735 | 29.57230 | 1138 ft | 121 kts | 71° |
| 2026-04-28 19:43 | 40.25980 | 29.58295 | 1503 ft | 123 kts | 74° |
| 2026-04-28 19:43 | 40.26173 | 29.59415 | 1897 ft | 129 kts | 79° |
| 2026-04-28 19:44 | 40.26197 | 29.60606 | 2264 ft | 131 kts | 116° |
| 2026-04-28 19:44 | 40.25431 | 29.61228 | 2585 ft | 137 kts | 166° |
| 2026-04-28 19:44 | 40.24478 | 29.61531 | 2950 ft | 141 kts | 168° |
| 2026-04-28 19:44 | 40.23504 | 29.61639 | 3319 ft | 140 kts | 196° |
| 2026-04-28 19:45 | 40.22817 | 29.60863 | 3703 ft | 140 kts | 246° |
| 2026-04-28 19:45 | 40.22521 | 29.59627 | 3799 ft | 139 kts | 258° |
| 2026-04-28 19:45 | 40.22348 | 29.58419 | 3828 ft | 134 kts | 262° |
| 2026-04-28 19:45 | 40.22203 | 29.57221 | 3812 ft | 130 kts | 263° |
| 2026-04-28 19:46 | 40.22093 | 29.56066 | 3814 ft | 127 kts | 265° |
| 2026-04-28 19:46 | 40.22016 | 29.54936 | 3818 ft | 122 kts | 266° |
| 2026-04-28 19:46 | 40.21939 | 29.53859 | 3842 ft | 115 kts | 263° |
| 2026-04-28 19:46 | 40.21944 | 29.52775 | 3685 ft | 124 kts | 275° |
| 2026-04-28 19:47 | 40.21940 | 29.51650 | 3648 ft | 121 kts | 268° |
| 2026-04-28 19:47 | 40.21879 | 29.50579 | 3709 ft | 114 kts | 265° |
| 2026-04-28 19:47 | 40.21830 | 29.49498 | 3825 ft | 132 kts | 269° |
| 2026-04-28 19:47 | 40.21787 | 29.48262 | 4125 ft | 140 kts | 265° |
| 2026-04-28 19:48 | 40.21678 | 29.46946 | 4396 ft | 148 kts | 264° |
| 2026-04-28 19:48 | 40.21545 | 29.45583 | 4613 ft | 158 kts | 264° |
| 2026-04-28 19:48 | 40.21404 | 29.44009 | 4434 ft | 180 kts | 266° |
| 2026-04-28 19:48 | 40.21315 | 29.42378 | 4418 ft | 180 kts | 268° |
| 2026-04-28 19:49 | 40.21217 | 29.40796 | 4642 ft | 168 kts | 265° |
| 2026-04-28 19:49 | 40.21152 | 29.39269 | 4614 ft | 171 kts | 272° |
| 2026-04-28 19:49 | 40.21209 | 29.37706 | 4485 ft | 172 kts | 276° |
| 2026-04-28 19:49 | 40.21297 | 29.36171 | 4510 ft | 167 kts | 276° |
| 2026-04-28 19:50 | 40.21586 | 29.33143 | 4365 ft | 169 kts | 282° |
| 2026-04-28 19:50 | 40.21768 | 29.31601 | 4216 ft | 169 kts | 276° |
| 2026-04-28 19:50 | 40.21771 | 29.30118 | 4418 ft | 157 kts | 268° |
| 2026-04-28 19:51 | 40.21714 | 29.28706 | 4346 ft | 155 kts | 269° |
| 2026-04-28 19:51 | 40.21701 | 29.27299 | 4028 ft | 156 kts | 272° |
| 2026-04-28 19:51 | 40.21700 | 29.25910 | 3767 ft | 143 kts | 272° |
| 2026-04-28 19:51 | 40.21737 | 29.24618 | 3380 ft | 141 kts | 275° |
| 2026-04-28 19:52 | 40.21841 | 29.23351 | 3063 ft | 136 kts | 279° |
| 2026-04-28 19:52 | 40.22019 | 29.22232 | 3004 ft | 118 kts | 283° |
| 2026-04-28 19:52 | 40.22213 | 29.21192 | 2820 ft | 117 kts | 284° |
| 2026-04-28 19:52 | 40.22410 | 29.20158 | 2625 ft | 114 kts | 285° |
| 2026-04-28 19:53 | 40.22609 | 29.19186 | 2532 ft | 108 kts | 284° |
| 2026-04-28 19:53 | 40.22782 | 29.18244 | 2428 ft | 108 kts | 283° |
| 2026-04-28 19:53 | 40.22928 | 29.17290 | 2368 ft | 105 kts | 282° |
| 2026-04-28 19:53 | 40.23071 | 29.16348 | 2344 ft | 103 kts | 282° |
| 2026-04-28 19:54 | 40.23216 | 29.15440 | 2257 ft | 103 kts | 279° |
| 2026-04-28 19:54 | 40.23316 | 29.14501 | 2077 ft | 107 kts | 275° |
| 2026-04-28 19:54 | 40.23349 | 29.13541 | 1927 ft | 105 kts | 272° |
| 2026-04-28 19:54 | 40.23366 | 29.12603 | 1833 ft | 99 kts | 273° |
| 2026-04-28 19:55 | 40.23320 | 29.10092 | 1732 ft | 91 kts | 267° |
| 2026-04-28 19:55 | 40.23291 | 29.09256 | 1659 ft | 90 kts | 265° |
| 2026-04-28 19:56 | 40.23131 | 29.08476 | 1560 ft | 96 kts | 262° |
| 2026-04-28 19:56 | 40.23181 | 29.07576 | 1375 ft | 102 kts | 287° |
| 2026-04-28 19:56 | 40.23347 | 29.06649 | 1157 ft | 108 kts | 280° |
| 2026-04-28 19:56 | 40.23434 | 29.05684 | 880 ft | 120 kts | 282° |